createdAt,value
2022-08-05T00:00:18.332Z,22.70
2022-08-05T00:02:51.479Z,22.70
2022-08-05T00:05:27.201Z,22.70
2022-08-05T00:08:32.615Z,22.70
2022-08-05T00:11:00.361Z,22.70
2022-08-05T00:13:38.841Z,22.70
2022-08-05T00:16:10.937Z,22.70
2022-08-05T00:18:42.159Z,22.60
2022-08-05T00:21:11.097Z,22.60
2022-08-05T00:23:45.643Z,22.60
2022-08-05T00:26:22.370Z,22.60
2022-08-05T00:28:52.344Z,22.60
2022-08-05T00:31:53.370Z,22.60
2022-08-05T00:34:53.755Z,22.60
2022-08-05T00:37:10.999Z,22.60
2022-08-05T00:39:57.480Z,22.60
2022-08-05T00:42:33.281Z,22.60
2022-08-05T00:45:03.602Z,22.60
2022-08-05T00:47:52.961Z,22.50
2022-08-05T00:50:20.970Z,22.60
2022-08-05T00:52:49.549Z,22.50
2022-08-05T00:55:21.649Z,22.50
2022-08-05T00:57:58.781Z,22.50
2022-08-05T01:00:32.040Z,22.50
2022-08-05T01:03:03.233Z,22.50
2022-08-05T01:05:36.501Z,22.50
2022-08-05T01:08:40.292Z,22.40
2022-08-05T01:10:56.197Z,22.40
2022-08-05T01:13:57.823Z,22.40
2022-08-05T01:16:30.307Z,22.40
2022-08-05T01:19:07.721Z,22.40
2022-08-05T01:21:58.282Z,22.40
2022-08-05T01:24:48.869Z,22.40
2022-08-05T01:27:33.930Z,22.40
2022-08-05T01:30:17.715Z,22.40
2022-08-05T01:32:50.741Z,22.40
2022-08-05T01:35:50.656Z,22.40
2022-08-05T01:38:27.110Z,22.30
2022-08-05T01:41:01.575Z,22.30
2022-08-05T01:43:30.828Z,22.30
2022-08-05T01:46:07.122Z,22.30
2022-08-05T01:48:49.825Z,22.30
2022-08-05T01:51:19.886Z,22.30
2022-08-05T01:53:57.922Z,22.30
2022-08-05T01:58:11.341Z,22.30
2022-08-05T01:59:22.017Z,22.30
2022-08-05T02:01:58.023Z,22.30
2022-08-05T02:04:29.965Z,22.30
2022-08-05T02:06:59.939Z,22.30
2022-08-05T02:09:31.880Z,22.30
2022-08-05T02:12:10.162Z,22.20
2022-08-05T02:14:47.112Z,22.20
2022-08-05T02:18:27.469Z,22.20
2022-08-05T02:20:20.477Z,22.20
2022-08-05T02:22:56.349Z,22.20
2022-08-05T02:25:33.300Z,22.20
2022-08-05T02:28:08.766Z,22.10
2022-08-05T02:30:54.338Z,22.10
2022-08-05T02:33:35.977Z,22.10
2022-08-05T02:36:13.284Z,22.10
2022-08-05T02:38:53.657Z,22.10
2022-08-05T02:41:23.634Z,22.00
2022-08-05T02:44:02.937Z,22.00
2022-08-05T02:46:35.214Z,22.00
2022-08-05T02:49:07.233Z,22.00
2022-08-05T02:52:03.190Z,22.00
2022-08-05T02:54:35.999Z,22.00
2022-08-05T02:57:09.799Z,21.90
2022-08-05T02:59:48.124Z,21.90
2022-08-05T03:02:21.256Z,21.90
2022-08-05T03:04:54.017Z,21.80
2022-08-05T03:07:40.473Z,21.80
2022-08-05T03:10:13.355Z,21.80
2022-08-05T03:12:41.804Z,21.80
2022-08-05T03:15:12.346Z,21.70
2022-08-05T03:17:41.476Z,21.70
2022-08-05T03:20:13.442Z,21.70
2022-08-05T03:22:44.221Z,21.70
2022-08-05T03:25:32.629Z,21.70
2022-08-05T03:28:08.437Z,21.60
2022-08-05T03:30:38.182Z,21.60
2022-08-05T03:33:07.602Z,21.60
2022-08-05T03:35:40.514Z,21.60
2022-08-05T03:38:11.610Z,21.60
2022-08-05T03:40:41.480Z,21.50
2022-08-05T03:43:58.794Z,21.50
2022-08-05T03:46:02.526Z,21.50
2022-08-05T03:48:35.354Z,21.50
2022-08-05T03:52:39.019Z,21.50
2022-08-05T03:55:50.143Z,21.50
2022-08-05T03:56:53.856Z,21.50
2022-08-05T03:59:26.321Z,21.40
2022-08-05T04:01:59.486Z,21.40
2022-08-05T04:04:30.455Z,21.40
2022-08-05T04:07:01.651Z,21.40
2022-08-05T04:09:32.707Z,21.40
2022-08-05T04:12:05.269Z,21.40
2022-08-05T04:14:52.531Z,21.40
2022-08-05T04:17:20.530Z,21.40
2022-08-05T04:19:54.570Z,21.40
2022-08-05T04:22:28.134Z,21.30
2022-08-05T04:24:56.136Z,21.30
2022-08-05T04:27:42.056Z,21.30
2022-08-05T04:30:13.235Z,21.30
2022-08-05T04:32:42.077Z,21.30
2022-08-05T04:35:17.417Z,21.30
2022-08-05T04:38:02.555Z,21.20
2022-08-05T04:40:36.047Z,21.20
2022-08-05T04:43:04.372Z,21.20
2022-08-05T04:45:48.832Z,21.20
2022-08-05T04:48:28.151Z,21.20
2022-08-05T04:51:03.263Z,21.20
2022-08-05T04:53:40.516Z,21.20
2022-08-05T04:56:33.365Z,21.10
2022-08-05T04:58:57.847Z,21.10
2022-08-05T05:02:05.445Z,21.10
2022-08-05T05:04:14.951Z,21.10
2022-08-05T05:06:49.137Z,21.10
2022-08-05T05:09:22.055Z,21.10
2022-08-05T05:11:54.405Z,21.10
2022-08-05T05:14:31.537Z,21.10
2022-08-05T05:17:00.331Z,21.10
2022-08-05T05:19:36.520Z,21.10
2022-08-05T05:22:24.551Z,21.10
2022-08-05T05:24:56.757Z,21.10
2022-08-05T05:27:45.767Z,21.10
2022-08-05T05:30:30.914Z,21.10
2022-08-05T05:33:03.814Z,21.10
2022-08-05T05:35:44.864Z,21.10
2022-08-05T05:38:14.113Z,21.10
2022-08-05T05:40:49.989Z,21.10
2022-08-05T05:43:22.394Z,21.10
2022-08-05T05:46:15.867Z,21.00
2022-08-05T05:48:48.217Z,21.10
2022-08-05T05:51:21.081Z,21.10
2022-08-05T05:53:57.134Z,21.10
2022-08-05T05:56:32.217Z,21.10
2022-08-05T05:59:03.475Z,21.10
2022-08-05T06:01:37.078Z,21.10
2022-08-05T06:04:07.270Z,21.10
2022-08-05T06:06:35.448Z,21.10
2022-08-05T06:09:04.214Z,21.10
2022-08-05T06:11:33.905Z,21.20
2022-08-05T06:14:02.207Z,21.20
2022-08-05T06:16:36.615Z,21.20
2022-08-05T06:19:07.580Z,21.20
2022-08-05T06:21:38.763Z,21.20
2022-08-05T06:24:11.594Z,21.20
2022-08-05T06:26:51.302Z,21.30
2022-08-05T06:29:42.802Z,21.30
2022-08-05T06:32:20.950Z,21.30
2022-08-05T06:34:56.247Z,21.30
2022-08-05T06:37:56.137Z,21.30
2022-08-05T06:40:18.061Z,21.30
2022-08-05T06:42:51.904Z,21.30
2022-08-05T06:45:45.135Z,21.30
2022-08-05T06:48:44.433Z,21.30
2022-08-05T06:50:58.424Z,21.40
2022-08-05T06:53:29.129Z,21.40
2022-08-05T06:55:58.166Z,21.40
2022-08-05T06:58:29.593Z,21.50
2022-08-05T07:01:03.447Z,21.50
2022-08-05T07:03:33.190Z,21.60
2022-08-05T07:06:05.992Z,21.70
2022-08-05T07:08:47.937Z,21.70
2022-08-05T07:11:25.642Z,21.80
2022-08-05T07:14:15.845Z,21.80
2022-08-05T07:17:59.180Z,21.90
2022-08-05T07:22:30.092Z,21.90
2022-08-05T07:25:54.378Z,21.90
2022-08-05T07:27:58.239Z,21.90
2022-08-05T07:30:33.596Z,21.90
2022-08-05T07:33:05.396Z,21.90
2022-08-05T07:36:02.437Z,21.90
2022-08-05T07:38:33.472Z,21.90
2022-08-05T07:42:06.759Z,21.80
2022-08-05T07:43:56.067Z,21.80
2022-08-05T07:46:27.281Z,21.80
2022-08-05T07:49:03.302Z,21.80
2022-08-05T07:51:40.882Z,21.90
2022-08-05T07:54:18.861Z,21.80
2022-08-05T07:57:14.860Z,21.80
2022-08-05T07:59:40.225Z,21.80
2022-08-05T08:02:16.397Z,21.80
2022-08-05T08:04:49.819Z,21.80
2022-08-05T08:07:22.415Z,21.80
2022-08-05T08:09:54.864Z,21.80
2022-08-05T08:12:32.003Z,21.70
2022-08-05T08:15:15.340Z,21.70
2022-08-05T08:17:52.611Z,21.70
2022-08-05T08:20:45.344Z,21.60
2022-08-05T08:23:20.972Z,21.60
2022-08-05T08:26:02.801Z,21.50
2022-08-05T08:28:35.524Z,21.50
2022-08-05T08:31:05.779Z,21.50
2022-08-05T08:33:36.068Z,21.50
2022-08-05T08:36:37.584Z,21.40
2022-08-05T08:38:57.091Z,21.40
2022-08-05T08:41:52.671Z,21.40
2022-08-05T08:45:20.709Z,21.30
2022-08-05T08:47:22.294Z,21.30
2022-08-05T08:50:23.139Z,21.30
2022-08-05T08:52:51.641Z,21.30
2022-08-05T08:56:03.175Z,21.30
2022-08-05T08:58:12.857Z,21.30
2022-08-05T09:00:41.823Z,21.20
2022-08-05T09:03:12.337Z,21.30
2022-08-05T09:06:08.188Z,21.20
2022-08-05T09:08:33.788Z,21.30
2022-08-05T09:11:01.944Z,21.20
2022-08-05T09:13:31.509Z,21.20
2022-08-05T09:16:01.053Z,21.20
2022-08-05T09:18:30.672Z,21.20
2022-08-05T09:21:00.029Z,21.20
2022-08-05T09:23:28.870Z,21.20
2022-08-05T09:26:10.299Z,21.20
2022-08-05T09:28:44.283Z,21.20
2022-08-05T09:31:43.899Z,21.20
2022-08-05T09:34:04.153Z,21.20
2022-08-05T09:36:54.132Z,21.10
2022-08-05T09:39:27.573Z,21.10
2022-08-05T09:42:13.444Z,21.00
2022-08-05T09:46:05.222Z,21.10
2022-08-05T09:47:56.801Z,21.00
2022-08-05T09:50:38.415Z,21.00
2022-08-05T09:53:22.981Z,21.00
2022-08-05T09:56:04.830Z,21.00
2022-08-05T09:58:41.975Z,21.00
2022-08-05T10:01:15.330Z,21.00
2022-08-05T10:04:00.092Z,21.00
2022-08-05T10:06:29.414Z,21.00
2022-08-05T10:09:25.096Z,21.00
2022-08-05T10:12:30.288Z,21.00
2022-08-05T10:15:13.871Z,21.00
2022-08-05T10:17:54.469Z,21.00
2022-08-05T10:20:26.508Z,21.00
2022-08-05T10:22:55.934Z,21.10
2022-08-05T10:25:28.340Z,21.10
2022-08-05T10:28:12.739Z,21.10
2022-08-05T10:32:48.444Z,21.10
2022-08-05T10:33:36.181Z,21.10
2022-08-05T10:36:05.443Z,21.20
2022-08-05T10:38:35.493Z,21.20
2022-08-05T10:41:12.398Z,21.30
2022-08-05T10:43:51.913Z,21.30
2022-08-05T10:46:23.767Z,21.40
2022-08-05T10:49:00.592Z,21.40
2022-08-05T10:51:57.684Z,21.40
2022-08-05T10:55:03.354Z,21.50
2022-08-05T10:57:34.294Z,21.60
2022-08-05T11:00:18.231Z,21.70
2022-08-05T11:03:25.563Z,21.80
2022-08-05T11:06:15.344Z,21.90
2022-08-05T11:09:13.152Z,22.00
2022-08-05T11:11:53.225Z,22.00
2022-08-05T11:15:11.689Z,22.10
2022-08-05T11:17:57.402Z,22.10
2022-08-05T11:20:44.317Z,22.20
2022-08-05T11:24:03.423Z,22.10
2022-08-05T11:26:28.328Z,22.10
2022-08-05T11:29:02.418Z,22.20
2022-08-05T11:31:56.714Z,22.20
2022-08-05T11:34:39.983Z,22.20
2022-08-05T11:38:36.635Z,22.30
2022-08-05T11:41:14.031Z,22.30
2022-08-05T11:44:04.491Z,22.20
2022-08-05T11:46:35.091Z,22.20
2022-08-05T11:49:07.912Z,22.20
2022-08-05T11:51:44.868Z,22.30
2022-08-05T11:54:33.795Z,22.10
2022-08-05T11:57:07.713Z,22.10
2022-08-05T11:59:49.976Z,22.10
2022-08-05T12:02:24.242Z,22.00
2022-08-05T12:05:07.422Z,21.90
2022-08-05T12:08:08.028Z,22.00
2022-08-05T12:10:45.612Z,22.20
2022-08-05T12:13:17.193Z,22.20
2022-08-05T12:15:50.125Z,22.40
2022-08-05T12:18:32.737Z,22.40
2022-08-05T12:21:13.155Z,22.50
2022-08-05T12:23:53.803Z,22.50
2022-08-05T12:26:23.157Z,22.60
2022-08-05T12:28:52.582Z,22.70
2022-08-05T12:31:33.032Z,22.70
2022-08-05T12:34:09.847Z,22.80
2022-08-05T12:36:52.358Z,22.80
2022-08-05T12:39:20.541Z,22.80
2022-08-05T12:41:48.866Z,22.90
2022-08-05T12:44:32.628Z,22.80
2022-08-05T12:47:02.467Z,22.90
2022-08-05T12:50:03.253Z,22.90
2022-08-05T12:52:37.724Z,23.00
2022-08-05T12:55:22.148Z,23.00
2022-08-05T12:58:48.550Z,23.00
2022-08-05T13:02:00.256Z,23.10
2022-08-05T13:03:32.629Z,23.10
2022-08-05T13:06:01.087Z,23.10
2022-08-05T13:08:32.289Z,23.10
2022-08-05T13:11:02.132Z,23.00
2022-08-05T13:14:05.324Z,23.00
2022-08-05T13:16:20.847Z,23.00
2022-08-05T13:18:55.282Z,23.00
2022-08-05T13:21:28.333Z,22.90
2022-08-05T13:24:08.740Z,22.80
2022-08-05T13:26:37.325Z,22.80
2022-08-05T13:29:05.509Z,22.80
2022-08-05T13:32:04.609Z,22.60
2022-08-05T13:34:25.949Z,22.60
2022-08-05T13:36:54.625Z,22.40
2022-08-05T13:40:16.189Z,22.40
2022-08-05T13:42:14.258Z,22.40
2022-08-05T13:44:45.877Z,22.40
2022-08-05T13:47:34.748Z,22.60
2022-08-05T13:50:04.347Z,22.60
2022-08-05T13:52:35.275Z,22.70
2022-08-05T13:55:07.926Z,22.80
2022-08-05T13:57:48.579Z,22.90
2022-08-05T14:00:17.496Z,23.00
2022-08-05T14:02:45.599Z,23.00
2022-08-05T14:05:19.561Z,23.10
2022-08-05T14:08:11.126Z,23.10
2022-08-05T14:10:50.810Z,23.10
2022-08-05T14:13:18.848Z,23.20
2022-08-05T14:16:04.903Z,23.20
2022-08-05T14:18:37.984Z,23.30
2022-08-05T14:22:08.143Z,23.20
2022-08-05T14:23:56.195Z,23.10
2022-08-05T14:26:35.589Z,23.00
2022-08-05T14:29:16.469Z,23.10
2022-08-05T14:32:03.583Z,23.20
2022-08-05T14:34:34.989Z,23.40
2022-08-05T14:37:04.027Z,23.50
2022-08-05T14:39:50.309Z,23.60
2022-08-05T14:42:22.290Z,23.80
2022-08-05T14:44:50.811Z,23.90
2022-08-05T14:47:58.538Z,24.10
2022-08-05T14:50:17.783Z,24.00
2022-08-05T14:52:58.709Z,24.00
2022-08-05T14:55:38.581Z,23.90
2022-08-05T14:58:10.976Z,23.90
2022-08-05T15:00:58.449Z,23.90
2022-08-05T15:03:33.151Z,23.80
2022-08-05T15:06:06.920Z,23.90
2022-08-05T15:09:01.442Z,24.00
2022-08-05T15:11:50.930Z,24.10
2022-08-05T15:14:34.264Z,24.00
2022-08-05T15:17:05.318Z,24.10
2022-08-05T15:19:38.230Z,23.90
2022-08-05T15:22:08.762Z,23.80
2022-08-05T15:24:37.132Z,23.70
2022-08-05T15:27:09.029Z,23.60
2022-08-05T15:29:41.968Z,23.70
2022-08-05T15:32:10.206Z,23.60
2022-08-05T15:34:38.293Z,23.70
2022-08-05T15:37:14.814Z,23.80
2022-08-05T15:41:03.178Z,23.90
2022-08-05T15:42:56.273Z,24.00
2022-08-05T15:45:38.546Z,24.10
2022-08-05T15:48:07.196Z,23.90
2022-08-05T15:50:35.797Z,23.90
2022-08-05T15:53:06.391Z,23.90
2022-08-05T15:56:02.222Z,24.00
2022-08-05T15:58:25.208Z,24.20
2022-08-05T16:01:11.867Z,24.30
2022-08-05T16:03:44.692Z,24.50
2022-08-05T16:06:20.359Z,24.70
2022-08-05T16:08:50.324Z,24.70
2022-08-05T16:11:21.108Z,24.60
2022-08-05T16:14:08.014Z,24.50
2022-08-05T16:16:38.620Z,24.60
2022-08-05T16:19:06.636Z,24.80
2022-08-05T16:21:58.894Z,25.00
2022-08-05T16:24:41.131Z,25.30
2022-08-05T16:27:15.948Z,25.40
2022-08-05T16:29:50.308Z,25.60
2022-08-05T16:32:28.622Z,25.70
2022-08-05T16:34:58.798Z,25.60
2022-08-05T16:38:03.707Z,25.70
2022-08-05T16:40:26.669Z,25.70
2022-08-05T16:42:57.902Z,25.60
2022-08-05T16:46:06.068Z,25.40
2022-08-05T16:48:25.221Z,25.10
2022-08-05T16:50:53.776Z,25.10
2022-08-05T16:53:32.250Z,25.30
2022-08-05T16:56:11.733Z,25.40
2022-08-05T16:58:40.765Z,25.60
2022-08-05T17:01:10.585Z,25.80
2022-08-05T17:03:40.099Z,26.10
2022-08-05T17:06:08.909Z,25.90
2022-08-05T17:08:52.999Z,25.70
2022-08-05T17:11:23.677Z,25.70
2022-08-05T17:14:00.363Z,25.90
2022-08-05T17:16:36.014Z,26.00
2022-08-05T17:19:07.017Z,26.10
2022-08-05T17:21:36.599Z,26.40
2022-08-05T17:24:19.794Z,26.70
2022-08-05T17:26:55.315Z,27.10
2022-08-05T17:29:40.080Z,27.40
2022-08-05T17:32:11.775Z,27.30
2022-08-05T17:34:48.015Z,27.00
2022-08-05T17:37:40.443Z,26.70
2022-08-05T17:40:11.013Z,26.50
2022-08-05T17:42:42.842Z,26.00
2022-08-05T17:45:21.776Z,25.70
2022-08-05T17:47:54.433Z,25.50
2022-08-05T17:50:30.300Z,25.20
2022-08-05T17:53:00.609Z,24.80
2022-08-05T17:55:38.468Z,24.40
2022-08-05T17:58:11.063Z,24.10
2022-08-05T18:00:45.323Z,23.70
2022-08-05T18:03:39.367Z,23.50
2022-08-05T18:06:12.357Z,23.40
2022-08-05T18:08:45.515Z,23.20
2022-08-05T18:11:23.717Z,23.10
2022-08-05T18:13:55.406Z,23.00
2022-08-05T18:16:23.559Z,22.80
2022-08-05T18:18:51.588Z,22.70
2022-08-05T18:21:22.884Z,22.60
2022-08-05T18:23:54.516Z,22.50
2022-08-05T18:26:29.258Z,22.30
2022-08-05T18:29:00.003Z,22.20
2022-08-05T18:31:33.722Z,22.20
2022-08-05T18:34:03.689Z,22.10
2022-08-05T18:36:36.406Z,21.90
2022-08-05T18:39:06.697Z,21.90
2022-08-05T18:42:00.486Z,21.80
2022-08-05T18:44:34.743Z,21.70
2022-08-05T18:47:04.057Z,21.70
2022-08-05T18:49:57.846Z,21.50
2022-08-05T18:52:36.960Z,21.50
2022-08-05T18:55:10.438Z,21.40
2022-08-05T18:57:43.019Z,21.40
2022-08-05T19:00:20.250Z,21.40
2022-08-05T19:02:49.034Z,21.40
2022-08-05T19:06:11.728Z,21.40
2022-08-05T19:08:13.457Z,21.30
2022-08-05T19:10:41.929Z,21.30
2022-08-05T19:13:12.353Z,21.20
2022-08-05T19:16:00.011Z,21.10
2022-08-05T19:18:32.569Z,21.10
2022-08-05T19:21:00.586Z,21.10
2022-08-05T19:24:06.839Z,21.10
2022-08-05T19:26:19.955Z,21.00
2022-08-05T19:28:48.056Z,21.00
2022-08-05T19:31:17.973Z,21.00
2022-08-05T19:33:48.261Z,21.00
2022-08-05T19:36:25.625Z,21.00
2022-08-05T19:39:01.108Z,21.00
2022-08-05T19:41:58.360Z,21.00
2022-08-05T19:44:18.826Z,21.00
2022-08-05T19:46:47.291Z,21.00
2022-08-05T19:49:18.582Z,21.00
2022-08-05T19:52:04.551Z,21.00
2022-08-05T19:54:37.323Z,21.00
2022-08-05T19:57:09.535Z,20.90
2022-08-05T20:00:00.436Z,20.90
2022-08-05T20:02:30.475Z,20.90
2022-08-05T20:05:00.047Z,20.90
2022-08-05T20:07:45.987Z,20.90
2022-08-05T20:10:24.359Z,20.80
2022-08-05T20:12:53.239Z,20.80
2022-08-05T20:15:23.398Z,20.80
2022-08-05T20:18:33.424Z,20.80
2022-08-05T20:21:00.103Z,20.80
2022-08-05T20:23:40.102Z,20.80
2022-08-05T20:26:18.438Z,20.80
2022-08-05T20:28:48.598Z,20.80
2022-08-05T20:31:17.117Z,20.80
2022-08-05T20:33:45.706Z,20.70
2022-08-05T20:36:17.841Z,20.80
2022-08-05T20:38:53.255Z,20.80
2022-08-05T20:41:26.992Z,20.70
2022-08-05T20:43:59.988Z,20.70
2022-08-05T20:46:30.739Z,20.70
2022-08-05T20:49:00.546Z,20.70
2022-08-05T20:51:30.812Z,20.70
2022-08-05T20:54:01.188Z,20.70
2022-08-05T20:56:41.920Z,20.60
2022-08-05T20:59:14.102Z,20.60
2022-08-05T21:01:47.202Z,20.60
2022-08-05T21:04:15.495Z,20.60
2022-08-05T21:06:45.064Z,20.60
2022-08-05T21:09:15.029Z,20.60
2022-08-05T21:12:10.694Z,20.60
2022-08-05T21:14:35.252Z,20.60
2022-08-05T21:17:05.327Z,20.60
2022-08-05T21:19:47.067Z,20.60
2022-08-05T21:22:17.701Z,20.50
2022-08-05T21:24:48.853Z,20.50
2022-08-05T21:27:25.147Z,20.50
2022-08-05T21:29:55.365Z,20.50
2022-08-05T21:32:24.437Z,20.50
2022-08-05T21:35:06.882Z,20.40
2022-08-05T21:37:47.118Z,20.40
2022-08-05T21:40:16.600Z,20.40
2022-08-05T21:42:47.205Z,20.40
2022-08-05T21:45:24.300Z,20.40
2022-08-05T21:47:56.432Z,20.30
2022-08-05T21:50:26.194Z,20.30
2022-08-05T21:52:58.544Z,20.30
2022-08-05T21:56:01.668Z,20.30
2022-08-05T21:58:16.866Z,20.30
2022-08-05T22:00:51.410Z,20.30
2022-08-05T22:03:48.255Z,20.20
2022-08-05T22:06:08.214Z,20.20
2022-08-05T22:08:36.349Z,20.20
2022-08-05T22:11:11.967Z,20.10
2022-08-05T22:14:19.510Z,20.10
2022-08-05T22:16:41.960Z,20.10
2022-08-05T22:20:02.181Z,20.10
2022-08-05T22:22:07.802Z,20.10
2022-08-05T22:24:55.918Z,20.00
2022-08-05T22:28:10.942Z,20.00
2022-08-05T22:30:35.222Z,19.90
2022-08-05T22:33:04.013Z,19.90
2022-08-05T22:35:48.949Z,19.90
2022-08-05T22:38:19.608Z,19.90
2022-08-05T22:40:49.410Z,19.80
2022-08-05T22:43:36.654Z,19.80
2022-08-05T22:46:13.110Z,19.80
2022-08-05T22:48:49.045Z,19.80
2022-08-05T22:51:22.974Z,19.70
2022-08-05T22:53:57.971Z,19.70
2022-08-05T22:56:30.381Z,19.70
2022-08-05T22:59:00.025Z,19.60
2022-08-05T23:01:50.918Z,19.70
2022-08-05T23:04:22.182Z,19.60
2022-08-05T23:06:50.225Z,19.60
2022-08-05T23:09:27.315Z,19.60
2022-08-05T23:12:06.797Z,19.50
2022-08-05T23:14:35.041Z,19.50
2022-08-05T23:17:21.977Z,19.50
2022-08-05T23:19:56.313Z,19.50
2022-08-05T23:22:27.498Z,19.40
2022-08-05T23:24:56.400Z,19.50
2022-08-05T23:27:28.848Z,19.40
2022-08-05T23:30:11.617Z,19.40
2022-08-05T23:32:45.316Z,19.40
2022-08-05T23:35:13.689Z,19.40
2022-08-05T23:37:41.730Z,19.30
2022-08-05T23:40:12.230Z,19.30
2022-08-05T23:42:41.799Z,19.30
2022-08-05T23:45:15.993Z,19.20
2022-08-05T23:47:48.155Z,19.20
2022-08-05T23:50:17.132Z,19.20
2022-08-05T23:52:49.951Z,19.20
2022-08-05T23:55:19.997Z,19.20
2022-08-05T23:57:51.241Z,19.10
